Time;durP1;ratioP1;P1;durP2;ratioP2;P2;SDS_P1;SDS_P2;PMS_P1;PMS_P2;Temp;Humidity;BMP_temperature;BMP_pressure;BME280_temperature;BME280_humidity;BME280_pressure;Samples;Min_cycle;Max_cycle;Signal;HPM_P1;HPM_P2
2022/09/10 00:00:54;;;;;;;0.57;0.50;;;16.00;85.00;;;;;;5115807;28;20112;-76
2022/09/10 00:03:21;;;;;;;1.05;0.50;;;16.00;85.00;;;;;;5093776;28;20043;-76
2022/09/10 00:05:47;;;;;;;0.88;0.60;;;16.10;85.00;;;;;;5115813;28;20036;-77
2022/09/10 00:08:14;;;;;;;1.02;0.50;;;16.00;85.00;;;;;;5097232;28;20047;-77
2022/09/10 00:10:43;;;;;;;0.60;0.60;;;16.00;85.10;;;;;;5115194;28;20050;-77
2022/09/10 00:13:10;;;;;;;1.63;0.68;;;16.00;85.10;;;;;;5080524;28;20127;-77
2022/09/10 00:15:39;;;;;;;1.17;0.50;;;16.00;85.10;;;;;;5097360;28;20031;-77
2022/09/10 00:18:05;;;;;;;0.95;0.68;;;16.10;85.30;;;;;;5113897;28;20032;-77
2022/09/10 00:20:30;;;;;;;1.00;0.77;;;16.00;85.20;;;;;;5115759;28;20051;-77
2022/09/10 00:22:56;;;;;;;1.60;0.70;;;16.00;85.20;;;;;;5096982;28;20164;-76
2022/09/10 00:25:23;;;;;;;1.65;0.80;;;16.00;85.20;;;;;;5096941;28;20039;-77
2022/09/10 00:27:50;;;;;;;1.88;0.80;;;16.00;85.30;;;;;;5097556;28;20492;-77
2022/09/10 00:30:17;;;;;;;2.95;0.80;;;16.00;85.30;;;;;;5096946;28;20050;-77
2022/09/10 00:32:42;;;;;;;0.75;0.70;;;15.90;85.20;;;;;;5096820;28;20034;-77
2022/09/10 00:35:08;;;;;;;1.75;0.90;;;16.00;85.30;;;;;;5096887;28;20031;-77
2022/09/10 00:37:34;;;;;;;1.90;1.00;;;15.90;85.30;;;;;;5096663;28;20469;-77
2022/09/10 00:40:00;;;;;;;2.15;1.10;;;15.90;85.30;;;;;;5096894;28;20584;-77
2022/09/10 00:42:26;;;;;;;1.90;1.00;;;15.90;85.40;;;;;;5096769;28;20043;-77
2022/09/10 00:44:57;;;;;;;1.10;1.00;;;15.90;85.40;;;;;;5096813;28;20505;-77
2022/09/10 00:47:25;;;;;;;;;;;15.90;85.40;;;;;;5113659;28;20044;-77
2022/09/10 00:50:16;;;;;;;1.10;0.85;;;15.90;85.30;;;;;;5096275;28;19960;-76
2022/09/10 00:52:43;;;;;;;1.13;0.95;;;15.90;85.30;;;;;;5114682;28;20040;-76
2022/09/10 00:55:11;;;;;;;1.75;0.90;;;15.90;85.30;;;;;;5095014;28;20096;-77
2022/09/10 00:57:37;;;;;;;1.10;0.90;;;16.00;85.40;;;;;;5096488;28;20055;-76
2022/09/10 01:00:08;;;;;;;3.53;1.20;;;16.00;85.30;;;;;;5096337;28;20056;-77
2022/09/10 01:02:37;;;;;;;;;;;16.10;85.40;;;;;;5115082;28;20493;-76
2022/09/10 01:05:04;;;;;;;1.13;0.95;;;15.90;85.20;;;;;;5096265;28;19968;-76
2022/09/10 01:07:32;;;;;;;1.45;1.10;;;16.00;85.30;;;;;;5095150;28;20047;-76
2022/09/10 01:10:02;;;;;;;1.60;1.10;;;16.00;85.30;;;;;;5114667;28;20482;-77
2022/09/10 01:12:54;;;;;;;1.20;1.10;;;16.00;85.30;;;;;;5113131;28;20050;-76
2022/09/10 01:15:40;;;;;;;1.60;1.20;;;16.00;85.40;;;;;;5095791;28;20051;-77
2022/09/10 01:18:32;;;;;;;1.52;1.05;;;16.10;85.40;;;;;;5113971;28;20124;-76
2022/09/10 01:21:09;;;;;;;1.55;1.10;;;16.00;85.30;;;;;;5112942;28;20044;-76
2022/09/10 01:24:05;;;;;;;1.45;1.00;;;16.00;85.30;;;;;;5097485;28;20126;-77
2022/09/10 01:26:58;;;;;;;1.90;1.30;;;16.00;85.40;;;;;;5098918;28;20397;-77
2022/09/10 01:29:39;;;;;;;1.92;1.30;;;15.90;85.30;;;;;;5114045;28;20039;-77
2022/09/10 01:32:13;;;;;;;2.17;1.35;;;16.00;85.40;;;;;;5114156;28;20485;-76
2022/09/10 01:35:03;;;;;;;2.25;1.25;;;16.00;85.40;;;;;;5114132;28;20035;-76
2022/09/10 01:37:30;;;;;;;2.13;1.70;;;16.00;85.50;;;;;;5078830;28;20501;-76
2022/09/10 01:39:58;;;;;;;2.80;1.80;;;16.00;85.40;;;;;;5113355;28;20134;-76
2022/09/10 01:42:26;;;;;;;2.42;1.60;;;16.00;85.50;;;;;;5096081;28;20073;-76
2022/09/10 01:44:54;;;;;;;1.83;1.17;;;16.10;85.60;;;;;;5113890;28;20040;-77
2022/09/10 01:47:55;;;;;;;1.77;1.50;;;16.10;85.60;;;;;;5079056;28;20039;-77
2022/09/10 01:50:45;;;;;;;3.05;1.45;;;16.00;85.60;;;;;;5097883;28;20047;-77
2022/09/10 01:53:38;;;;;;;1.88;1.40;;;16.00;85.50;;;;;;5095055;28;20548;-76
2022/09/10 01:56:25;;;;;;;1.73;1.30;;;16.00;85.60;;;;;;5112555;28;20054;-77
2022/09/10 01:58:54;;;;;;;1.60;1.40;;;16.00;85.50;;;;;;5093015;28;20036;-77
2022/09/10 02:01:28;;;;;;;1.23;1.13;;;16.00;85.50;;;;;;5114018;28;20036;-77
2022/09/10 02:04:00;;;;;;;2.63;1.40;;;16.00;85.60;;;;;;5095875;28;20044;-77
2022/09/10 02:06:28;;;;;;;2.65;1.70;;;16.10;85.60;;;;;;5113606;28;20051;-77
2022/09/10 02:08:57;;;;;;;1.90;1.40;;;16.10;85.60;;;;;;5113659;28;20118;-77
2022/09/10 02:11:23;;;;;;;1.45;1.30;;;16.10;85.70;;;;;;5095845;28;20500;-77
2022/09/10 02:13:49;;;;;;;1.85;1.40;;;16.10;85.70;;;;;;5113553;28;20036;-77
2022/09/10 02:16:23;;;;;;;1.58;1.10;;;16.00;85.60;;;;;;5095702;28;20039;-77
2022/09/10 02:18:49;;;;;;;2.22;1.40;;;16.10;85.70;;;;;;5096304;28;20031;-77
2022/09/10 02:21:15;;;;;;;1.85;1.30;;;16.10;85.70;;;;;;5078788;28;20039;-76
2022/09/10 02:23:44;;;;;;;1.98;1.40;;;16.10;85.80;;;;;;5113519;28;20044;-77
2022/09/10 02:26:13;;;;;;;2.33;1.73;;;16.10;85.80;;;;;;5113499;28;20058;-76
2022/09/10 02:28:42;;;;;;;2.15;1.55;;;16.10;85.80;;;;;;5094062;28;20351;-77
2022/09/10 02:31:08;;;;;;;2.63;1.70;;;16.10;85.90;;;;;;5112990;28;20116;-77
2022/09/10 02:33:34;;;;;;;2.00;1.40;;;16.10;85.90;;;;;;5094968;28;20108;-77
2022/09/10 02:36:01;;;;;;;1.30;1.20;;;16.10;85.90;;;;;;5113028;28;20034;-77
2022/09/10 02:38:28;;;;;;;2.78;1.50;;;16.10;85.90;;;;;;5094861;28;20519;-77
2022/09/10 02:40:57;;;;;;;1.88;1.50;;;16.10;85.90;;;;;;5094936;28;20039;-77
2022/09/10 02:43:23;;;;;;;2.63;1.55;;;16.10;86.00;;;;;;5113305;28;20505;-77
2022/09/10 02:45:48;;;;;;;2.53;1.52;;;16.10;86.00;;;;;;5113196;28;20066;-77
2022/09/10 02:48:17;;;;;;;2.10;1.40;;;16.10;86.00;;;;;;5113401;28;20052;-76
2022/09/10 02:50:45;;;;;;;1.30;1.20;;;16.10;86.00;;;;;;5094251;28;20405;-76
2022/09/10 02:53:12;;;;;;;2.88;1.70;;;16.10;86.10;;;;;;5095279;28;20039;-77
2022/09/10 02:55:37;;;;;;;2.58;1.58;;;16.10;86.10;;;;;;5092897;28;20036;-77
2022/09/10 02:58:03;;;;;;;2.22;1.50;;;16.10;86.10;;;;;;5078111;28;20114;-76
2022/09/10 03:00:30;;;;;;;1.83;1.35;;;16.10;86.10;;;;;;5113278;28;20127;-77
2022/09/10 03:02:56;;;;;;;2.22;1.30;;;16.10;86.10;;;;;;5095240;28;20039;-76
2022/09/10 03:05:22;;;;;;;1.85;1.30;;;16.10;86.20;;;;;;5094449;28;20040;-77
2022/09/10 03:07:48;;;;;;;2.35;1.48;;;16.00;86.20;;;;;;5113143;28;20051;-76
2022/09/10 03:10:14;;;;;;;1.73;1.30;;;16.00;86.30;;;;;;5113127;28;20039;-76
2022/09/10 03:12:40;;;;;;;1.50;1.17;;;16.00;86.40;;;;;;5077803;28;20202;-76
2022/09/10 03:15:07;;;;;;;1.75;1.35;;;16.00;86.40;;;;;;5113228;28;20036;-76
2022/09/10 03:17:33;;;;;;;1.15;1.05;;;16.00;86.40;;;;;;5094241;28;20496;-77
2022/09/10 03:19:58;;;;;;;1.13;1.02;;;16.00;86.50;;;;;;5112692;28;20122;-76
2022/09/10 03:22:24;;;;;;;1.95;1.20;;;16.00;86.50;;;;;;5112583;28;20038;-76
2022/09/10 03:24:50;;;;;;;1.45;1.30;;;16.00;86.50;;;;;;5112575;28;20039;-76
2022/09/10 03:27:16;;;;;;;2.15;1.30;;;16.00;86.60;;;;;;5112769;28;20035;-76
2022/09/10 03:29:43;;;;;;;2.35;1.60;;;16.00;86.60;;;;;;5113093;28;20036;-76
2022/09/10 03:32:08;;;;;;;1.40;1.30;;;16.10;86.70;;;;;;5097976;28;20127;-76
2022/09/10 03:34:35;;;;;;;1.45;1.23;;;16.00;86.70;;;;;;5097811;28;20718;-76
2022/09/10 03:37:00;;;;;;;1.60;1.30;;;16.10;86.70;;;;;;5097809;28;20035;-76
2022/09/10 03:39:26;;;;;;;1.88;1.10;;;16.00;86.70;;;;;;5116469;28;20039;-77
2022/09/10 03:41:52;;;;;;;1.88;1.30;;;16.00;86.70;;;;;;5097938;28;20031;-76
2022/09/10 03:44:18;;;;;;;1.77;1.38;;;16.00;86.80;;;;;;5098319;28;20043;-76
2022/09/10 03:46:47;;;;;;;1.75;1.17;;;16.10;86.80;;;;;;5115991;28;20417;-76
2022/09/10 03:49:13;;;;;;;2.17;1.15;;;16.00;86.80;;;;;;5116012;28;20047;-76
2022/09/10 03:51:39;;;;;;;2.13;1.42;;;16.00;86.70;;;;;;5115813;28;20035;-76
2022/09/10 03:54:05;;;;;;;2.00;1.40;;;16.00;86.80;;;;;;5115672;28;20038;-77
2022/09/10 03:56:31;;;;;;;1.88;1.52;;;16.10;86.80;;;;;;5080469;28;20497;-76
2022/09/10 03:58:56;;;;;;;2.05;1.40;;;16.00;86.80;;;;;;5115840;28;20089;-76
2022/09/10 04:01:22;;;;;;;2.42;1.30;;;16.00;86.90;;;;;;5097551;28;20083;-76
2022/09/10 04:03:48;;;;;;;2.63;1.50;;;16.10;86.90;;;;;;5116431;28;20126;-77
2022/09/10 04:06:15;;;;;;;1.58;1.30;;;16.10;87.00;;;;;;5115800;28;20505;-76
2022/09/10 04:08:42;;;;;;;1.63;1.20;;;16.00;86.90;;;;;;5116163;28;20051;-77
2022/09/10 04:11:08;;;;;;;1.95;1.40;;;16.10;87.00;;;;;;5115680;28;20497;-76
2022/09/10 04:13:34;;;;;;;2.05;1.58;;;16.10;87.00;;;;;;5115809;28;20046;-76
2022/09/10 04:16:00;;;;;;;1.77;1.50;;;16.20;87.00;;;;;;5097306;28;20040;-77
2022/09/10 04:18:27;;;;;;;1.98;1.50;;;16.10;87.00;;;;;;5115837;28;20465;-77
2022/09/10 04:20:55;;;;;;;1.80;1.30;;;16.10;87.00;;;;;;5080514;28;20039;-76
2022/09/10 04:23:21;;;;;;;2.25;1.40;;;16.10;87.00;;;;;;5116051;28;20043;-77
2022/09/10 04:25:48;;;;;;;2.53;1.40;;;16.10;87.00;;;;;;5115796;28;20401;-77
2022/09/10 04:28:14;;;;;;;2.25;1.48;;;16.10;87.10;;;;;;5115897;28;20481;-76
2022/09/10 04:30:41;;;;;;;1.42;1.30;;;16.10;87.00;;;;;;5097374;28;20044;-76
2022/09/10 04:33:07;;;;;;;1.98;1.50;;;16.10;87.00;;;;;;5116110;28;20040;-77
2022/09/10 04:35:33;;;;;;;1.55;1.45;;;16.20;87.10;;;;;;5080299;28;20137;-76
2022/09/10 04:37:59;;;;;;;1.80;1.23;;;16.20;87.20;;;;;;5116001;28;20044;-77
2022/09/10 04:40:26;;;;;;;3.15;1.50;;;16.10;87.10;;;;;;5115605;28;20035;-76
2022/09/10 04:42:51;;;;;;;3.05;1.50;;;16.20;87.10;;;;;;5115303;28;20066;-76
2022/09/10 04:45:18;;;;;;;1.50;1.20;;;16.20;87.10;;;;;;5115824;28;20492;-76
2022/09/10 04:47:46;;;;;;;1.15;1.00;;;16.20;87.20;;;;;;5114974;28;20105;-76
2022/09/10 04:50:14;;;;;;;1.33;1.20;;;16.20;87.20;;;;;;5114924;28;20114;-77
2022/09/10 04:52:42;;;;;;;2.17;1.33;;;16.20;87.10;;;;;;5097347;28;20096;-76
2022/09/10 04:55:10;;;;;;;1.30;1.15;;;16.20;87.10;;;;;;5115248;28;20040;-76
2022/09/10 04:57:37;;;;;;;1.45;1.25;;;16.20;87.20;;;;;;5113594;28;20101;-76
2022/09/10 05:00:08;;;;;;;1.60;1.40;;;16.20;87.20;;;;;;5115714;28;20035;-76
2022/09/10 05:02:35;;;;;;;;;;;16.20;87.20;;;;;;5116030;28;20038;-77
2022/09/10 05:05:01;;;;;;;1.52;1.40;;;16.20;87.00;;;;;;5114919;28;19919;-76
2022/09/10 05:07:26;;;;;;;1.10;1.00;;;16.20;87.00;;;;;;5115486;28;20131;-76
2022/09/10 05:09:52;;;;;;;1.20;1.08;;;16.10;87.00;;;;;;5096913;28;20047;-76
2022/09/10 05:12:18;;;;;;;1.10;1.00;;;16.20;87.10;;;;;;5115682;28;20521;-76
2022/09/10 05:14:44;;;;;;;1.73;1.10;;;16.20;87.10;;;;;;5096754;28;20040;-76
2022/09/10 05:17:10;;;;;;;1.90;1.05;;;16.20;87.10;;;;;;5114898;28;20122;-76
2022/09/10 05:19:36;;;;;;;1.52;1.20;;;16.20;87.20;;;;;;5114883;28;20137;-76
2022/09/10 05:22:01;;;;;;;1.35;1.10;;;16.30;87.20;;;;;;5096428;28;20070;-76
2022/09/10 05:24:27;;;;;;;1.50;1.13;;;16.20;87.20;;;;;;5096448;28;20043;-77
2022/09/10 05:26:53;;;;;;;0.90;0.90;;;16.30;87.30;;;;;;5114786;28;20401;-76
2022/09/10 05:29:20;;;;;;;1.70;1.38;;;16.30;87.40;;;;;;5114930;28;20044;-76
2022/09/10 05:31:46;;;;;;;1.45;1.17;;;16.30;87.30;;;;;;5079413;28;20492;-76
2022/09/10 05:34:12;;;;;;;1.20;1.10;;;16.30;87.40;;;;;;5096413;28;20093;-76
2022/09/10 05:36:39;;;;;;;1.15;1.05;;;16.30;87.40;;;;;;5115008;28;20421;-76
2022/09/10 05:39:05;;;;;;;1.10;1.00;;;16.30;87.40;;;;;;5096900;28;20155;-76
2022/09/10 05:41:31;;;;;;;1.20;1.08;;;16.30;87.40;;;;;;5114461;28;20048;-76
2022/09/10 05:43:58;;;;;;;1.02;1.00;;;16.30;87.40;;;;;;5114235;28;20043;-77
2022/09/10 05:46:24;;;;;;;1.13;1.02;;;16.40;87.50;;;;;;5114039;28;20401;-78
2022/09/10 05:48:51;;;;;;;1.23;1.00;;;16.40;87.50;;;;;;5114316;28;20047;-80
2022/09/10 05:51:17;;;;;;;1.02;0.90;;;16.40;87.50;;;;;;5115527;28;20389;-83
2022/09/10 05:53:43;;;;;;;1.75;1.10;;;16.40;87.50;;;;;;5085881;28;20042;-83
2022/09/10 05:56:08;;;;;;;1.30;1.20;;;16.40;87.50;;;;;;5081023;28;20046;-83
2022/09/10 05:58:34;;;;;;;0.90;0.90;;;16.40;87.60;;;;;;5059848;28;20047;-81
2022/09/10 06:01:00;;;;;;;1.27;1.00;;;16.30;87.60;;;;;;5096613;28;20040;-81
2022/09/10 06:03:26;;;;;;;1.95;0.88;;;16.30;87.70;;;;;;5062347;28;20405;-80
2022/09/10 06:05:55;;;;;;;1.42;0.88;;;16.30;87.70;;;;;;5114103;28;20036;-82
2022/09/10 06:08:21;;;;;;;0.65;0.65;;;16.40;87.90;;;;;;5062439;28;20051;-82
2022/09/10 06:11:08;;;;;;;1.50;1.00;;;16.30;87.90;;;;;;5113630;28;20050;-80
2022/09/10 06:13:34;;;;;;;0.75;0.75;;;16.20;88.00;;;;;;5064185;28;20040;-81
2022/09/10 06:16:00;;;;;;;0.90;0.80;;;16.20;88.00;;;;;;5095618;28;20035;-80
2022/09/10 06:18:26;;;;;;;0.80;0.77;;;16.20;88.10;;;;;;5113885;28;20035;-80
2022/09/10 06:21:11;;;;;;;0.80;0.52;;;16.20;88.10;;;;;;5078798;28;20108;-80
2022/09/10 06:23:37;;;;;;;1.85;0.63;;;16.20;88.30;;;;;;5095165;28;20044;-80
2022/09/10 06:26:07;;;;;;;0.77;0.70;;;16.20;88.30;;;;;;5095072;28;20047;-79
2022/09/10 06:28:34;;;;;;;0.70;0.70;;;16.20;88.30;;;;;;5095559;28;20043;-79
2022/09/10 06:31:03;;;;;;;0.88;0.80;;;16.20;88.40;;;;;;5113320;28;20043;-80
2022/09/10 06:33:29;;;;;;;1.20;1.10;;;16.10;88.30;;;;;;5095722;28;20080;-81
2022/09/10 06:35:57;;;;;;;1.38;1.10;;;16.00;88.40;;;;;;5078656;28;20044;-81
2022/09/10 06:38:24;;;;;;;1.35;1.10;;;16.10;88.50;;;;;;5096160;28;20044;-80
2022/09/10 06:40:53;;;;;;;1.42;1.20;;;16.00;88.60;;;;;;5096282;28;20031;-81
2022/09/10 06:43:20;;;;;;;3.20;1.50;;;16.00;88.60;;;;;;5115253;28;20038;-81
2022/09/10 06:45:45;;;;;;;2.33;1.70;;;16.10;88.70;;;;;;5115634;28;20031;-81
2022/09/10 06:48:11;;;;;;;2.30;1.52;;;16.00;88.70;;;;;;5096436;28;20550;-80
2022/09/10 06:50:37;;;;;;;2.05;1.60;;;16.00;88.70;;;;;;5096357;28;20389;-80
2022/09/10 06:53:02;;;;;;;2.47;1.70;;;16.00;88.70;;;;;;5096004;28;20444;-79
2022/09/10 06:55:28;;;;;;;3.08;2.05;;;16.10;88.70;;;;;;5115518;28;20118;-83
2022/09/10 06:57:54;;;;;;;2.10;1.90;;;16.00;88.60;;;;;;5115098;28;20116;-80
2022/09/10 07:00:20;;;;;;;3.15;1.95;;;16.00;88.70;;;;;;5096650;28;20075;-81
2022/09/10 07:02:47;;;;;;;3.53;1.90;;;16.00;88.70;;;;;;5062516;28;20496;-81
2022/09/10 07:05:13;;;;;;;3.15;1.98;;;16.00;88.70;;;;;;5077292;28;20088;-82
2022/09/10 07:07:39;;;;;;;2.72;1.80;;;16.00;88.70;;;;;;5114790;28;20428;-81
2022/09/10 07:10:06;;;;;;;3.08;2.03;;;16.10;88.70;;;;;;5096608;28;20043;-81
2022/09/10 07:12:32;;;;;;;3.40;2.03;;;16.10;88.70;;;;;;5095479;28;20131;-82
2022/09/10 07:14:57;;;;;;;2.85;2.03;;;16.10;88.80;;;;;;5118524;28;20050;-81
2022/09/10 07:17:23;;;;;;;2.40;1.70;;;16.10;88.80;;;;;;5101857;28;20066;-80
2022/09/10 07:19:49;;;;;;;2.15;1.50;;;16.10;88.80;;;;;;5099607;28;20044;-81
2022/09/10 07:22:14;;;;;;;2.35;1.70;;;16.10;88.80;;;;;;5100948;28;20044;-82
2022/09/10 07:24:40;;;;;;;2.53;1.40;;;16.10;88.70;;;;;;5102303;28;20093;-81
2022/09/10 07:27:06;;;;;;;2.78;1.80;;;16.20;88.80;;;;;;5119981;28;20039;-80
2022/09/10 07:29:32;;;;;;;2.78;1.65;;;16.20;88.80;;;;;;5097429;28;20088;-79
2022/09/10 07:31:57;;;;;;;2.95;1.95;;;16.20;88.80;;;;;;5084543;28;20044;-80
2022/09/10 07:34:24;;;;;;;2.78;1.90;;;16.10;88.70;;;;;;5103161;28;20036;-79
2022/09/10 07:36:49;;;;;;;1.75;1.50;;;16.20;88.80;;;;;;5104965;28;20401;-79
2022/09/10 07:39:15;;;;;;;3.30;2.10;;;16.20;88.80;;;;;;5100848;28;20055;-79
2022/09/10 07:41:41;;;;;;;2.75;1.80;;;16.20;88.90;;;;;;5101546;28;20504;-80
2022/09/10 07:44:06;;;;;;;2.72;1.75;;;16.20;88.90;;;;;;5065156;28;20040;-81
2022/09/10 07:46:32;;;;;;;2.63;1.80;;;16.20;88.90;;;;;;5095692;28;20043;-81
2022/09/10 07:48:59;;;;;;;3.17;2.03;;;16.30;88.90;;;;;;5096202;28;20504;-78
2022/09/10 07:51:28;;;;;;;1.80;1.50;;;16.30;88.90;;;;;;5095684;28;20050;-81
2022/09/10 07:53:56;;;;;;;2.30;1.55;;;16.30;88.90;;;;;;5094513;28;20039;-80
2022/09/10 07:56:22;;;;;;;2.17;1.40;;;16.40;88.90;;;;;;5115427;28;20047;-81
2022/09/10 07:58:48;;;;;;;1.63;1.40;;;16.40;88.90;;;;;;5096979;28;20074;-80
2022/09/10 08:01:14;;;;;;;2.28;1.10;;;16.30;88.90;;;;;;5097586;28;20044;-81
2022/09/10 08:03:40;;;;;;;1.50;1.40;;;16.50;88.90;;;;;;5083231;28;20117;-80
2022/09/10 08:06:08;;;;;;;2.63;1.55;;;16.50;88.80;;;;;;5099142;28;20485;-80
2022/09/10 08:08:36;;;;;;;2.47;1.50;;;16.50;88.70;;;;;;5099581;28;20052;-81
2022/09/10 08:11:06;;;;;;;2.53;1.40;;;16.60;88.60;;;;;;5081120;28;20127;-81
2022/09/10 08:13:35;;;;;;;1.10;1.00;;;16.60;88.60;;;;;;5098238;28;20489;-81
2022/09/10 08:16:05;;;;;;;1.35;1.00;;;16.60;88.60;;;;;;5081857;28;20100;-81
2022/09/10 08:18:31;;;;;;;1.83;1.45;;;16.60;88.50;;;;;;5100298;28;20393;-81
2022/09/10 08:20:57;;;;;;;2.45;1.38;;;16.70;88.60;;;;;;5101530;28;20044;-82
2022/09/10 08:23:23;;;;;;;1.27;1.00;;;16.70;88.60;;;;;;5101026;28;20543;-81
2022/09/10 08:25:50;;;;;;;1.33;1.02;;;16.70;88.70;;;;;;5105998;28;20139;-81
2022/09/10 08:28:18;;;;;;;1.15;1.05;;;16.70;88.70;;;;;;5124979;28;20458;-80
2022/09/10 08:30:56;;;;;;;1.20;1.10;;;16.80;88.70;;;;;;5097742;28;20040;-80
2022/09/10 08:33:23;;;;;;;1.10;1.00;;;16.80;88.60;;;;;;5080002;28;20122;-81
2022/09/10 08:35:55;;;;;;;0.73;0.73;;;16.80;88.50;;;;;;5080238;28;20040;-80
2022/09/10 08:38:23;;;;;;;2.10;1.20;;;16.90;88.60;;;;;;5097539;28;20096;-80
2022/09/10 08:40:50;;;;;;;1.55;1.20;;;16.80;88.40;;;;;;5115354;28;20057;-80
2022/09/10 08:43:21;;;;;;;1.58;1.13;;;16.70;88.60;;;;;;5097745;28;20044;-80
2022/09/10 08:45:50;;;;;;;1.00;0.90;;;16.90;88.80;;;;;;5097037;28;20173;-80
2022/09/10 08:48:19;;;;;;;1.67;1.20;;;16.90;88.90;;;;;;5115303;28;20047;-80
2022/09/10 08:51:08;;;;;;;1.23;1.05;;;16.90;88.90;;;;;;5095121;28;20556;-80
2022/09/10 08:53:52;;;;;;;1.35;1.00;;;16.90;88.90;;;;;;5099790;28;20035;-80
2022/09/10 08:56:21;;;;;;;1.00;0.90;;;16.90;88.80;;;;;;5095667;28;20031;-80
2022/09/10 08:58:58;;;;;;;0.85;0.85;;;16.90;88.70;;;;;;5115270;28;20059;-80
2022/09/10 09:01:33;;;;;;;1.85;1.15;;;16.90;88.70;;;;;;5115264;28;20090;-78
2022/09/10 09:04:04;;;;;;;1.20;1.10;;;17.00;88.70;;;;;;5120112;28;20044;-78
2022/09/10 09:06:44;;;;;;;1.30;1.20;;;17.00;88.80;;;;;;5121423;28;20043;-78
2022/09/10 09:09:11;;;;;;;1.00;0.90;;;17.20;88.90;;;;;;5120731;28;20055;-79
2022/09/10 09:11:56;;;;;;;1.23;1.13;;;17.10;88.70;;;;;;5081249;28;20046;-78
2022/09/10 09:14:52;;;;;;;1.27;1.17;;;17.20;88.70;;;;;;5113865;28;20115;-79
2022/09/10 09:17:50;;;;;;;0.90;0.90;;;17.30;88.50;;;;;;5101442;28;20031;-81
2022/09/10 09:20:41;;;;;;;1.80;1.40;;;17.50;88.40;;;;;;5102433;28;20047;-79
2022/09/10 09:23:24;;;;;;;;;;;17.60;88.10;;;;;;5113969;28;20110;-79
2022/09/10 09:25:57;;;;;;;1.42;1.27;;;17.70;87.70;;;;;;5113282;28;19943;-79
2022/09/10 09:28:53;;;;;;;1.77;1.38;;;17.90;87.50;;;;;;5112409;28;20043;-79
2022/09/10 09:31:24;;;;;;;1.48;1.30;;;17.90;87.40;;;;;;5113066;28;20075;-80
2022/09/10 09:33:55;;;;;;;1.73;1.48;;;18.00;87.20;;;;;;5112848;28;20040;-79
2022/09/10 09:36:25;;;;;;;;;;;18.20;87.30;;;;;;5113600;28;20118;-79
2022/09/10 09:38:51;;;;;;;1.27;1.17;;;18.10;87.00;;;;;;5095038;28;20388;-81
2022/09/10 09:41:37;;;;;;;2.10;1.38;;;18.10;87.10;;;;;;5079858;28;20035;-80
2022/09/10 09:44:17;;;;;;;1.45;1.20;;;18.10;87.20;;;;;;5098441;28;20047;-80
2022/09/10 09:46:43;;;;;;;1.00;0.98;;;18.00;87.50;;;;;;5095323;28;20044;-79
2022/09/10 09:49:15;;;;;;;1.33;1.23;;;18.00;87.50;;;;;;5114856;28;20044;-79
2022/09/10 09:51:45;;;;;;;1.65;1.27;;;18.00;87.70;;;;;;5095760;28;20071;-77
2022/09/10 09:54:17;;;;;;;1.45;1.20;;;18.10;87.90;;;;;;5114215;28;20036;-83
2022/09/10 09:56:50;;;;;;;1.60;1.48;;;18.00;88.00;;;;;;5078942;28;20032;-80
2022/09/10 09:59:30;;;;;;;1.25;1.15;;;17.90;88.20;;;;;;5079395;28;20104;-81
2022/09/10 10:02:19;;;;;;;1.85;1.10;;;17.90;88.50;;;;;;5113110;28;20065;-81
2022/09/10 10:05:08;;;;;;;0.90;0.85;;;17.80;88.50;;;;;;5079332;28;20135;-81
2022/09/10 10:07:35;;;;;;;1.38;0.90;;;17.80;88.60;;;;;;5095706;28;20071;-77
2022/09/10 10:10:06;;;;;;;0.80;0.80;;;17.80;88.70;;;;;;5113897;28;20385;-79
2022/09/10 10:12:35;;;;;;;1.02;0.95;;;17.80;88.80;;;;;;5113919;28;20048;-80
2022/09/10 10:15:02;;;;;;;0.80;0.80;;;17.80;88.80;;;;;;5095341;28;20031;-81
2022/09/10 10:17:34;;;;;;;1.10;1.00;;;17.80;88.80;;;;;;5096147;28;20044;-81
2022/09/10 10:20:07;;;;;;;1.00;0.90;;;17.90;88.90;;;;;;5114374;28;20040;-81
2022/09/10 10:22:34;;;;;;;1.15;1.05;;;17.90;88.80;;;;;;5114177;28;20045;-81
2022/09/10 10:25:02;;;;;;;1.15;1.00;;;17.90;88.80;;;;;;5095707;28;20038;-78
2022/09/10 10:27:31;;;;;;;0.90;0.80;;;17.90;88.70;;;;;;5095721;28;20036;-76
2022/09/10 10:30:20;;;;;;;0.63;0.63;;;17.90;88.60;;;;;;5112815;28;20031;-78
2022/09/10 10:32:55;;;;;;;0.88;0.82;;;17.90;88.60;;;;;;5112530;28;20568;-80
2022/09/10 10:35:33;;;;;;;0.73;0.70;;;18.00;88.70;;;;;;5080222;28;20036;-79
2022/09/10 10:38:24;;;;;;;0.90;0.90;;;18.00;88.40;;;;;;5096078;28;20516;-79
2022/09/10 10:41:15;;;;;;;0.88;0.88;;;18.10;88.30;;;;;;5082194;28;20032;-78
2022/09/10 10:44:11;;;;;;;0.80;0.80;;;18.10;88.20;;;;;;5095573;28;20054;-79
2022/09/10 10:47:00;;;;;;;0.60;0.60;;;18.20;88.10;;;;;;5113401;28;20040;-79
2022/09/10 10:49:56;;;;;;;0.60;0.60;;;18.20;88.10;;;;;;5113760;28;20089;-79
2022/09/10 10:52:39;;;;;;;0.77;0.77;;;18.20;88.20;;;;;;5098798;28;20031;-79
2022/09/10 10:55:18;;;;;;;1.25;0.90;;;18.20;88.20;;;;;;5093954;28;20055;-79
2022/09/10 10:58:02;;;;;;;1.02;0.93;;;18.20;88.10;;;;;;5096071;28;20170;-79
2022/09/10 11:00:39;;;;;;;1.20;1.10;;;18.30;88.00;;;;;;5096815;28;20051;-80
2022/09/10 11:03:21;;;;;;;1.08;0.98;;;18.30;87.90;;;;;;5062745;28;20527;-80
2022/09/10 11:05:55;;;;;;;0.80;0.65;;;18.20;87.80;;;;;;5095865;28;20039;-81
2022/09/10 11:08:30;;;;;;;0.70;0.70;;;18.20;87.90;;;;;;5078665;28;20047;-80
2022/09/10 11:11:01;;;;;;;0.63;0.63;;;18.30;88.00;;;;;;5094311;28;20489;-80
2022/09/10 11:13:38;;;;;;;0.88;0.88;;;18.30;88.00;;;;;;5095707;28;20027;-81
2022/09/10 11:16:25;;;;;;;0.80;0.80;;;18.30;88.10;;;;;;5078789;28;20078;-81
2022/09/10 11:19:01;;;;;;;1.00;0.80;;;18.40;88.20;;;;;;5093213;28;20483;-78
2022/09/10 11:21:49;;;;;;;0.80;0.80;;;18.30;88.10;;;;;;5094870;28;20124;-80
2022/09/10 11:24:22;;;;;;;0.85;0.80;;;18.30;88.10;;;;;;5092680;28;20040;-80
2022/09/10 11:27:29;;;;;;;0.65;0.65;;;18.30;88.10;;;;;;5094196;28;20130;-82
2022/09/10 11:30:03;;;;;;;0.80;0.65;;;18.30;88.10;;;;;;5093552;28;20130;-80
2022/09/10 11:32:38;;;;;;;0.80;0.80;;;18.40;88.30;;;;;;5078018;28;20039;-80
2022/09/10 11:35:31;;;;;;;0.65;0.65;;;18.50;88.20;;;;;;5095943;28;20092;-80
2022/09/10 11:38:30;;;;;;;0.77;0.77;;;18.50;88.00;;;;;;5093990;28;20035;-81
2022/09/10 11:41:27;;;;;;;0.75;0.50;;;18.60;87.90;;;;;;5093256;28;20401;-80
2022/09/10 11:44:30;;;;;;;0.50;0.50;;;18.60;87.80;;;;;;5077222;28;20434;-82
2022/09/10 11:47:10;;;;;;;0.80;0.80;;;18.70;87.90;;;;;;5112421;28;20040;-79
2022/09/10 11:50:11;;;;;;;0.70;0.70;;;18.80;87.60;;;;;;5111602;28;20051;-79
2022/09/10 11:52:37;;;;;;;0.98;0.90;;;18.80;87.50;;;;;;5115558;28;20139;-80
2022/09/10 11:55:07;;;;;;;0.80;0.80;;;18.90;87.30;;;;;;5099496;28;20416;-80
2022/09/10 11:57:56;;;;;;;0.60;0.60;;;18.80;87.40;;;;;;5098869;28;20036;-79
2022/09/10 12:00:24;;;;;;;1.15;1.05;;;18.80;87.60;;;;;;5092091;28;20044;-78
2022/09/10 12:03:22;;;;;;;1.40;1.30;;;18.80;87.60;;;;;;5120236;28;20066;-78
2022/09/10 12:06:00;;;;;;;0.80;0.80;;;18.80;87.60;;;;;;5140047;28;20059;-78
2022/09/10 12:09:02;;;;;;;0.68;0.63;;;19.00;87.50;;;;;;5138320;28;20043;-80
2022/09/10 12:11:52;;;;;;;0.60;0.60;;;18.90;87.30;;;;;;5124165;28;20047;-78
2022/09/10 12:14:20;;;;;;;0.40;0.40;;;18.90;87.50;;;;;;5119655;28;20036;-79
2022/09/10 12:16:58;;;;;;;0.47;0.47;;;19.00;87.60;;;;;;5105936;28;20039;-79
2022/09/10 12:19:28;;;;;;;0.50;0.50;;;19.00;87.50;;;;;;5121544;28;20068;-79
2022/09/10 12:22:00;;;;;;;0.30;0.30;;;19.10;87.50;;;;;;5103589;28;20071;-81
2022/09/10 12:24:30;;;;;;;0.40;0.40;;;19.20;87.40;;;;;;5111990;28;20404;-81
2022/09/10 12:26:59;;;;;;;0.50;0.50;;;19.30;86.90;;;;;;5103438;28;20489;-79
2022/09/10 12:29:30;;;;;;;0.38;0.38;;;19.30;86.70;;;;;;5119614;28;20278;-78
2022/09/10 12:32:27;;;;;;;0.40;0.40;;;19.30;86.60;;;;;;5102923;28;20039;-79
2022/09/10 12:35:26;;;;;;;0.40;0.40;;;19.30;86.80;;;;;;5116864;28;20047;-78
2022/09/10 12:38:26;;;;;;;0.30;0.30;;;19.20;86.80;;;;;;5116540;28;20118;-78
2022/09/10 12:40:52;;;;;;;0.43;0.43;;;19.10;86.80;;;;;;5115792;28;20458;-77
2022/09/10 12:43:54;;;;;;;0.40;0.40;;;19.20;86.80;;;;;;5097633;28;20038;-77
2022/09/10 12:46:23;;;;;;;0.40;0.40;;;19.30;86.70;;;;;;5115150;28;20715;-77
2022/09/10 12:49:05;;;;;;;0.90;0.70;;;19.30;86.70;;;;;;5118354;28;20038;-76
2022/09/10 12:51:55;;;;;;;0.47;0.47;;;19.30;86.50;;;;;;5115348;28;20047;-77
2022/09/10 12:54:35;;;;;;;0.52;0.40;;;19.30;86.30;;;;;;5114915;28;20090;-76
2022/09/10 12:57:29;;;;;;;0.40;0.40;;;19.30;86.40;;;;;;5098354;28;20068;-76
2022/09/10 13:00:17;;;;;;;0.35;0.35;;;19.20;86.40;;;;;;5115355;28;20504;-76
2022/09/10 13:02:50;;;;;;;0.68;0.32;;;19.20;86.60;;;;;;5099674;28;20044;-76
2022/09/10 13:05:33;;;;;;;0.38;0.38;;;19.10;86.70;;;;;;5096078;28;20123;-76
2022/09/10 13:08:19;;;;;;;0.40;0.40;;;19.00;86.70;;;;;;5095441;28;20071;-76
2022/09/10 13:11:17;;;;;;;0.30;0.30;;;19.10;86.80;;;;;;5113634;28;20075;-76
2022/09/10 13:13:50;;;;;;;0.57;0.50;;;19.10;86.80;;;;;;5112732;28;20046;-76